sensor_id;sensor_type;location;lat;lon;timestamp;temperature;humidity
12957;DHT22;6543;48.836;10.092;2023-08-31T00:00:52;13.20;99.90
12957;DHT22;6543;48.836;10.092;2023-08-31T00:03:19;13.20;99.90
12957;DHT22;6543;48.836;10.092;2023-08-31T00:05:47;13.20;99.90
12957;DHT22;6543;48.836;10.092;2023-08-31T00:08:16;13.20;99.90
12957;DHT22;6543;48.836;10.092;2023-08-31T00:10:43;13.20;99.90
12957;DHT22;6543;48.836;10.092;2023-08-31T00:13:10;13.20;99.90
12957;DHT22;6543;48.836;10.092;2023-08-31T00:15:37;13.30;99.90
12957;DHT22;6543;48.836;10.092;2023-08-31T00:18:06;13.20;99.90
12957;DHT22;6543;48.836;10.092;2023-08-31T00:20:33;13.20;99.90
12957;DHT22;6543;48.836;10.092;2023-08-31T00:23:01;13.20;99.90
12957;DHT22;6543;48.836;10.092;2023-08-31T00:25:29;13.20;99.90
12957;DHT22;6543;48.836;10.092;2023-08-31T00:27:56;13.20;99.90
12957;DHT22;6543;48.836;10.092;2023-08-31T00:30:29;13.20;99.90
12957;DHT22;6543;48.836;10.092;2023-08-31T00:32:57;13.20;99.90
12957;DHT22;6543;48.836;10.092;2023-08-31T00:35:25;13.20;99.90
12957;DHT22;6543;48.836;10.092;2023-08-31T00:37:52;13.10;99.90
12957;DHT22;6543;48.836;10.092;2023-08-31T00:40:25;13.10;99.90
12957;DHT22;6543;48.836;10.092;2023-08-31T00:42:53;13.10;99.90
12957;DHT22;6543;48.836;10.092;2023-08-31T00:45:20;13.00;99.90
12957;DHT22;6543;48.836;10.092;2023-08-31T00:47:48;13.00;99.90
12957;DHT22;6543;48.836;10.092;2023-08-31T00:50:16;13.00;99.90
12957;DHT22;6543;48.836;10.092;2023-08-31T00:52:42;13.00;99.90
12957;DHT22;6543;48.836;10.092;2023-08-31T00:55:11;12.90;99.90
12957;DHT22;6543;48.836;10.092;2023-08-31T00:57:39;12.90;99.90
12957;DHT22;6543;48.836;10.092;2023-08-31T01:00:07;12.90;99.90
12957;DHT22;6543;48.836;10.092;2023-08-31T01:02:42;12.90;99.90
12957;DHT22;6543;48.836;10.092;2023-08-31T01:05:16;12.80;99.90
12957;DHT22;6543;48.836;10.092;2023-08-31T01:07:53;12.80;99.90
12957;DHT22;6543;48.836;10.092;2023-08-31T01:10:27;12.80;99.90
12957;DHT22;6543;48.836;10.092;2023-08-31T01:13:02;12.80;99.90
12957;DHT22;6543;48.836;10.092;2023-08-31T01:15:30;12.80;99.90
12957;DHT22;6543;48.836;10.092;2023-08-31T01:17:59;12.80;99.90
12957;DHT22;6543;48.836;10.092;2023-08-31T01:20:34;12.80;99.90
12957;DHT22;6543;48.836;10.092;2023-08-31T01:23:02;12.80;99.90
12957;DHT22;6543;48.836;10.092;2023-08-31T01:25:33;12.70;99.90
12957;DHT22;6543;48.836;10.092;2023-08-31T01:28:00;12.70;99.90
12957;DHT22;6543;48.836;10.092;2023-08-31T01:30:30;12.70;99.90
12957;DHT22;6543;48.836;10.092;2023-08-31T01:32:57;12.60;99.90
12957;DHT22;6543;48.836;10.092;2023-08-31T01:35:26;12.60;99.90
12957;DHT22;6543;48.836;10.092;2023-08-31T01:37:55;12.60;99.90
12957;DHT22;6543;48.836;10.092;2023-08-31T01:40:31;12.50;99.90
12957;DHT22;6543;48.836;10.092;2023-08-31T01:43:02;12.50;99.90
12957;DHT22;6543;48.836;10.092;2023-08-31T01:45:30;12.40;99.90
12957;DHT22;6543;48.836;10.092;2023-08-31T01:47:58;12.30;99.90
12957;DHT22;6543;48.836;10.092;2023-08-31T01:50:25;12.30;99.90
12957;DHT22;6543;48.836;10.092;2023-08-31T01:52:52;12.20;99.90
12957;DHT22;6543;48.836;10.092;2023-08-31T01:55:38;12.20;99.90
12957;DHT22;6543;48.836;10.092;2023-08-31T01:58:06;12.10;99.90
12957;DHT22;6543;48.836;10.092;2023-08-31T02:00:32;12.10;99.90
12957;DHT22;6543;48.836;10.092;2023-08-31T02:03:02;12.10;99.90
12957;DHT22;6543;48.836;10.092;2023-08-31T02:05:29;12.00;99.90
12957;DHT22;6543;48.836;10.092;2023-08-31T02:07:56;12.00;99.90
12957;DHT22;6543;48.836;10.092;2023-08-31T02:10:23;11.90;99.90
12957;DHT22;6543;48.836;10.092;2023-08-31T02:12:49;11.90;99.90
12957;DHT22;6543;48.836;10.092;2023-08-31T02:15:18;11.90;99.90
12957;DHT22;6543;48.836;10.092;2023-08-31T02:17:44;11.90;99.90
12957;DHT22;6543;48.836;10.092;2023-08-31T02:20:11;11.80;99.90
12957;DHT22;6543;48.836;10.092;2023-08-31T02:22:39;11.80;99.90
12957;DHT22;6543;48.836;10.092;2023-08-31T02:25:07;11.80;99.90
12957;DHT22;6543;48.836;10.092;2023-08-31T02:27:33;11.80;99.90
12957;DHT22;6543;48.836;10.092;2023-08-31T02:30:00;11.80;99.90
12957;DHT22;6543;48.836;10.092;2023-08-31T02:32:31;11.70;99.90
12957;DHT22;6543;48.836;10.092;2023-08-31T02:34:58;11.70;99.90
12957;DHT22;6543;48.836;10.092;2023-08-31T02:37:25;11.60;99.90
12957;DHT22;6543;48.836;10.092;2023-08-31T02:39:52;11.60;99.90
12957;DHT22;6543;48.836;10.092;2023-08-31T02:42:19;11.60;99.90
12957;DHT22;6543;48.836;10.092;2023-08-31T02:44:46;11.70;99.90
12957;DHT22;6543;48.836;10.092;2023-08-31T02:47:13;11.70;99.90
12957;DHT22;6543;48.836;10.092;2023-08-31T02:49:41;11.70;99.90
12957;DHT22;6543;48.836;10.092;2023-08-31T02:52:08;11.60;99.90
12957;DHT22;6543;48.836;10.092;2023-08-31T02:54:34;11.50;99.90
12957;DHT22;6543;48.836;10.092;2023-08-31T02:57:01;11.40;99.90
12957;DHT22;6543;48.836;10.092;2023-08-31T02:59:28;11.40;99.90
12957;DHT22;6543;48.836;10.092;2023-08-31T03:01:55;11.40;99.90
12957;DHT22;6543;48.836;10.092;2023-08-31T03:04:22;11.40;99.90
12957;DHT22;6543;48.836;10.092;2023-08-31T03:06:50;11.40;99.90
12957;DHT22;6543;48.836;10.092;2023-08-31T03:09:17;11.40;99.90
12957;DHT22;6543;48.836;10.092;2023-08-31T03:11:43;11.50;99.90
12957;DHT22;6543;48.836;10.092;2023-08-31T03:14:10;11.50;99.90
12957;DHT22;6543;48.836;10.092;2023-08-31T03:16:37;11.40;99.90
12957;DHT22;6543;48.836;10.092;2023-08-31T03:19:04;11.50;99.90
12957;DHT22;6543;48.836;10.092;2023-08-31T03:21:31;11.50;99.90
12957;DHT22;6543;48.836;10.092;2023-08-31T03:23:59;11.60;99.90
12957;DHT22;6543;48.836;10.092;2023-08-31T03:26:26;11.50;99.90
12957;DHT22;6543;48.836;10.092;2023-08-31T03:28:53;11.40;99.90
12957;DHT22;6543;48.836;10.092;2023-08-31T03:31:20;11.40;99.90
12957;DHT22;6543;48.836;10.092;2023-08-31T03:33:46;11.30;99.90
12957;DHT22;6543;48.836;10.092;2023-08-31T03:36:13;11.20;99.90
12957;DHT22;6543;48.836;10.092;2023-08-31T03:38:40;11.20;99.90
12957;DHT22;6543;48.836;10.092;2023-08-31T03:41:08;11.30;99.90
12957;DHT22;6543;48.836;10.092;2023-08-31T03:43:35;11.30;99.90
12957;DHT22;6543;48.836;10.092;2023-08-31T03:46:01;11.40;99.90
12957;DHT22;6543;48.836;10.092;2023-08-31T03:48:28;11.40;99.90
12957;DHT22;6543;48.836;10.092;2023-08-31T03:50:55;11.40;99.90
12957;DHT22;6543;48.836;10.092;2023-08-31T03:53:22;11.40;99.90
12957;DHT22;6543;48.836;10.092;2023-08-31T03:55:49;11.50;99.90
12957;DHT22;6543;48.836;10.092;2023-08-31T03:58:17;11.50;99.90
12957;DHT22;6543;48.836;10.092;2023-08-31T04:00:44;11.50;99.90
12957;DHT22;6543;48.836;10.092;2023-08-31T04:03:11;11.50;99.90
12957;DHT22;6543;48.836;10.092;2023-08-31T04:05:38;11.40;99.90
12957;DHT22;6543;48.836;10.092;2023-08-31T04:08:05;11.40;99.90
12957;DHT22;6543;48.836;10.092;2023-08-31T04:10:32;11.40;99.90
12957;DHT22;6543;48.836;10.092;2023-08-31T04:12:59;11.50;99.90
12957;DHT22;6543;48.836;10.092;2023-08-31T04:15:27;11.60;99.90
12957;DHT22;6543;48.836;10.092;2023-08-31T04:17:56;11.50;99.90
12957;DHT22;6543;48.836;10.092;2023-08-31T04:20:23;11.50;99.90
12957;DHT22;6543;48.836;10.092;2023-08-31T04:22:50;11.50;99.90
12957;DHT22;6543;48.836;10.092;2023-08-31T04:25:17;11.50;99.90
12957;DHT22;6543;48.836;10.092;2023-08-31T04:27:43;11.50;99.90
12957;DHT22;6543;48.836;10.092;2023-08-31T04:30:11;11.40;99.90
12957;DHT22;6543;48.836;10.092;2023-08-31T04:32:40;11.40;99.90
12957;DHT22;6543;48.836;10.092;2023-08-31T04:35:07;11.30;99.90
12957;DHT22;6543;48.836;10.092;2023-08-31T04:37:34;11.30;99.90
12957;DHT22;6543;48.836;10.092;2023-08-31T04:40:01;11.30;99.90
12957;DHT22;6543;48.836;10.092;2023-08-31T04:42:29;11.30;99.90
12957;DHT22;6543;48.836;10.092;2023-08-31T04:44:56;11.30;99.90
12957;DHT22;6543;48.836;10.092;2023-08-31T04:47:22;11.30;99.90
12957;DHT22;6543;48.836;10.092;2023-08-31T04:49:51;11.40;99.90
12957;DHT22;6543;48.836;10.092;2023-08-31T04:52:17;11.50;99.90
12957;DHT22;6543;48.836;10.092;2023-08-31T04:54:44;11.50;99.90
12957;DHT22;6543;48.836;10.092;2023-08-31T04:57:11;11.60;99.90
12957;DHT22;6543;48.836;10.092;2023-08-31T04:59:38;11.60;99.90
12957;DHT22;6543;48.836;10.092;2023-08-31T05:02:04;11.70;99.90
12957;DHT22;6543;48.836;10.092;2023-08-31T05:04:31;11.60;99.90
12957;DHT22;6543;48.836;10.092;2023-08-31T05:06:59;11.60;99.90
12957;DHT22;6543;48.836;10.092;2023-08-31T05:09:26;11.60;99.90
12957;DHT22;6543;48.836;10.092;2023-08-31T05:11:57;11.70;99.90
12957;DHT22;6543;48.836;10.092;2023-08-31T05:14:24;11.70;99.90
12957;DHT22;6543;48.836;10.092;2023-08-31T05:16:51;11.70;99.90
12957;DHT22;6543;48.836;10.092;2023-08-31T05:19:18;11.80;99.90
12957;DHT22;6543;48.836;10.092;2023-08-31T05:21:45;11.90;99.90
12957;DHT22;6543;48.836;10.092;2023-08-31T05:24:13;12.00;99.90
12957;DHT22;6543;48.836;10.092;2023-08-31T05:26:40;12.10;99.90
12957;DHT22;6543;48.836;10.092;2023-08-31T05:29:06;12.20;99.90
12957;DHT22;6543;48.836;10.092;2023-08-31T05:31:33;12.30;99.90
12957;DHT22;6543;48.836;10.092;2023-08-31T05:34:00;12.30;99.90
12957;DHT22;6543;48.836;10.092;2023-08-31T05:36:27;12.40;99.90
12957;DHT22;6543;48.836;10.092;2023-08-31T05:38:54;12.40;99.90
12957;DHT22;6543;48.836;10.092;2023-08-31T05:41:22;12.40;99.90
12957;DHT22;6543;48.836;10.092;2023-08-31T05:43:49;12.40;99.90
12957;DHT22;6543;48.836;10.092;2023-08-31T05:46:16;12.40;99.90
12957;DHT22;6543;48.836;10.092;2023-08-31T05:48:42;12.50;99.90
12957;DHT22;6543;48.836;10.092;2023-08-31T05:51:09;12.60;99.90
12957;DHT22;6543;48.836;10.092;2023-08-31T05:53:36;12.60;99.90
12957;DHT22;6543;48.836;10.092;2023-08-31T05:56:03;12.80;99.90
12957;DHT22;6543;48.836;10.092;2023-08-31T05:58:32;12.80;99.90
12957;DHT22;6543;48.836;10.092;2023-08-31T06:01:00;12.90;99.90
12957;DHT22;6543;48.836;10.092;2023-08-31T06:03:28;12.90;99.90
12957;DHT22;6543;48.836;10.092;2023-08-31T06:05:55;13.00;99.90
12957;DHT22;6543;48.836;10.092;2023-08-31T06:08:22;13.10;99.90
12957;DHT22;6543;48.836;10.092;2023-08-31T06:10:49;13.20;99.90
12957;DHT22;6543;48.836;10.092;2023-08-31T06:13:16;13.20;99.90
12957;DHT22;6543;48.836;10.092;2023-08-31T06:15:44;13.30;99.90
12957;DHT22;6543;48.836;10.092;2023-08-31T06:18:11;13.30;99.90
12957;DHT22;6543;48.836;10.092;2023-08-31T06:20:38;13.30;99.90
12957;DHT22;6543;48.836;10.092;2023-08-31T06:23:05;13.30;99.90
12957;DHT22;6543;48.836;10.092;2023-08-31T06:25:32;13.30;99.90
12957;DHT22;6543;48.836;10.092;2023-08-31T06:27:59;13.30;99.90
12957;DHT22;6543;48.836;10.092;2023-08-31T06:30:25;13.40;99.90
12957;DHT22;6543;48.836;10.092;2023-08-31T06:32:54;13.40;99.90
12957;DHT22;6543;48.836;10.092;2023-08-31T06:35:20;13.40;99.90
12957;DHT22;6543;48.836;10.092;2023-08-31T06:37:47;13.50;99.90
12957;DHT22;6543;48.836;10.092;2023-08-31T06:40:16;13.50;99.90
12957;DHT22;6543;48.836;10.092;2023-08-31T06:42:42;13.70;99.90
12957;DHT22;6543;48.836;10.092;2023-08-31T06:45:10;13.90;99.90
12957;DHT22;6543;48.836;10.092;2023-08-31T06:47:36;13.90;99.90
12957;DHT22;6543;48.836;10.092;2023-08-31T06:50:05;14.00;99.90
12957;DHT22;6543;48.836;10.092;2023-08-31T06:52:33;14.00;99.90
12957;DHT22;6543;48.836;10.092;2023-08-31T06:55:00;14.10;99.90
12957;DHT22;6543;48.836;10.092;2023-08-31T06:57:28;14.10;99.90
12957;DHT22;6543;48.836;10.092;2023-08-31T06:59:55;14.20;99.90
12957;DHT22;6543;48.836;10.092;2023-08-31T07:02:25;14.40;99.90
12957;DHT22;6543;48.836;10.092;2023-08-31T07:04:53;14.40;99.90
12957;DHT22;6543;48.836;10.092;2023-08-31T07:07:21;14.40;99.90
12957;DHT22;6543;48.836;10.092;2023-08-31T07:09:48;14.30;99.90
12957;DHT22;6543;48.836;10.092;2023-08-31T07:12:15;14.50;99.90
12957;DHT22;6543;48.836;10.092;2023-08-31T07:14:41;14.70;99.90
12957;DHT22;6543;48.836;10.092;2023-08-31T07:17:09;14.70;99.90
12957;DHT22;6543;48.836;10.092;2023-08-31T07:19:36;14.90;99.90
12957;DHT22;6543;48.836;10.092;2023-08-31T07:22:03;15.00;99.90
12957;DHT22;6543;48.836;10.092;2023-08-31T07:24:33;15.10;99.90
12957;DHT22;6543;48.836;10.092;2023-08-31T07:27:02;15.20;99.90
12957;DHT22;6543;48.836;10.092;2023-08-31T07:29:29;15.10;99.90
12957;DHT22;6543;48.836;10.092;2023-08-31T07:31:56;15.10;99.90
12957;DHT22;6543;48.836;10.092;2023-08-31T07:34:23;15.00;99.90
12957;DHT22;6543;48.836;10.092;2023-08-31T07:36:50;14.90;99.90
12957;DHT22;6543;48.836;10.092;2023-08-31T07:39:17;14.90;99.90
12957;DHT22;6543;48.836;10.092;2023-08-31T07:41:45;14.90;99.90
12957;DHT22;6543;48.836;10.092;2023-08-31T07:44:12;15.10;99.90
12957;DHT22;6543;48.836;10.092;2023-08-31T07:46:39;15.20;99.90
12957;DHT22;6543;48.836;10.092;2023-08-31T07:49:06;15.10;99.90
12957;DHT22;6543;48.836;10.092;2023-08-31T07:51:33;15.20;99.90
12957;DHT22;6543;48.836;10.092;2023-08-31T07:54:00;15.30;99.90
12957;DHT22;6543;48.836;10.092;2023-08-31T07:56:28;15.30;99.90
12957;DHT22;6543;48.836;10.092;2023-08-31T07:58:56;15.20;99.90
12957;DHT22;6543;48.836;10.092;2023-08-31T08:01:24;15.50;99.90
12957;DHT22;6543;48.836;10.092;2023-08-31T08:03:50;15.70;99.90
12957;DHT22;6543;48.836;10.092;2023-08-31T08:06:17;15.60;99.90
12957;DHT22;6543;48.836;10.092;2023-08-31T08:08:44;15.50;99.90
12957;DHT22;6543;48.836;10.092;2023-08-31T08:11:11;15.50;99.90
12957;DHT22;6543;48.836;10.092;2023-08-31T08:13:38;15.70;99.90
12957;DHT22;6543;48.836;10.092;2023-08-31T08:16:06;15.70;99.90
12957;DHT22;6543;48.836;10.092;2023-08-31T08:18:34;15.90;99.90
12957;DHT22;6543;48.836;10.092;2023-08-31T08:21:01;16.10;99.90
12957;DHT22;6543;48.836;10.092;2023-08-31T08:23:29;16.00;99.90
12957;DHT22;6543;48.836;10.092;2023-08-31T08:25:56;16.00;99.90
12957;DHT22;6543;48.836;10.092;2023-08-31T08:28:24;16.30;99.90
12957;DHT22;6543;48.836;10.092;2023-08-31T08:30:51;16.40;99.90
12957;DHT22;6543;48.836;10.092;2023-08-31T08:33:19;16.00;99.90
12957;DHT22;6543;48.836;10.092;2023-08-31T08:35:46;15.80;99.90
12957;DHT22;6543;48.836;10.092;2023-08-31T08:38:13;15.90;99.90
12957;DHT22;6543;48.836;10.092;2023-08-31T08:40:40;15.60;99.90
12957;DHT22;6543;48.836;10.092;2023-08-31T08:43:07;15.70;99.90
12957;DHT22;6543;48.836;10.092;2023-08-31T08:45:36;15.90;99.90
12957;DHT22;6543;48.836;10.092;2023-08-31T08:48:06;16.00;99.90
12957;DHT22;6543;48.836;10.092;2023-08-31T08:50:35;15.80;99.90
12957;DHT22;6543;48.836;10.092;2023-08-31T08:53:03;16.00;99.90
12957;DHT22;6543;48.836;10.092;2023-08-31T08:55:30;16.10;99.90
12957;DHT22;6543;48.836;10.092;2023-08-31T08:57:58;16.20;99.90
12957;DHT22;6543;48.836;10.092;2023-08-31T09:00:26;16.20;99.90
12957;DHT22;6543;48.836;10.092;2023-08-31T09:02:53;16.10;99.90
12957;DHT22;6543;48.836;10.092;2023-08-31T09:05:20;16.10;99.90
12957;DHT22;6543;48.836;10.092;2023-08-31T09:08:05;16.40;99.90
12957;DHT22;6543;48.836;10.092;2023-08-31T09:10:36;16.60;99.90
12957;DHT22;6543;48.836;10.092;2023-08-31T09:13:05;16.50;99.90
12957;DHT22;6543;48.836;10.092;2023-08-31T09:15:42;16.60;99.90
12957;DHT22;6543;48.836;10.092;2023-08-31T09:18:14;16.80;99.90
12957;DHT22;6543;48.836;10.092;2023-08-31T09:20:45;16.60;99.90
12957;DHT22;6543;48.836;10.092;2023-08-31T09:23:14;16.80;99.90
12957;DHT22;6543;48.836;10.092;2023-08-31T09:25:42;16.80;99.90
12957;DHT22;6543;48.836;10.092;2023-08-31T09:28:10;16.70;99.90
12957;DHT22;6543;48.836;10.092;2023-08-31T09:30:37;16.80;99.90
12957;DHT22;6543;48.836;10.092;2023-08-31T09:33:07;17.20;99.90
12957;DHT22;6543;48.836;10.092;2023-08-31T09:35:38;17.60;99.90
12957;DHT22;6543;48.836;10.092;2023-08-31T09:38:08;17.80;99.90
12957;DHT22;6543;48.836;10.092;2023-08-31T09:40:37;18.00;99.90
12957;DHT22;6543;48.836;10.092;2023-08-31T09:43:04;18.40;99.90
12957;DHT22;6543;48.836;10.092;2023-08-31T09:45:32;18.40;99.90
12957;DHT22;6543;48.836;10.092;2023-08-31T09:47:59;17.60;99.90
12957;DHT22;6543;48.836;10.092;2023-08-31T09:50:29;17.70;99.90
12957;DHT22;6543;48.836;10.092;2023-08-31T09:53:00;17.50;99.90
12957;DHT22;6543;48.836;10.092;2023-08-31T09:55:28;17.40;99.90
12957;DHT22;6543;48.836;10.092;2023-08-31T09:57:57;17.30;99.90
12957;DHT22;6543;48.836;10.092;2023-08-31T10:00:26;17.40;99.90
12957;DHT22;6543;48.836;10.092;2023-08-31T10:02:54;17.40;99.90
12957;DHT22;6543;48.836;10.092;2023-08-31T10:05:23;17.20;99.90
12957;DHT22;6543;48.836;10.092;2023-08-31T10:07:51;17.00;99.90
12957;DHT22;6543;48.836;10.092;2023-08-31T10:10:18;16.90;99.90
12957;DHT22;6543;48.836;10.092;2023-08-31T10:12:48;16.80;99.90
12957;DHT22;6543;48.836;10.092;2023-08-31T10:15:17;16.50;99.90
12957;DHT22;6543;48.836;10.092;2023-08-31T10:17:44;16.50;99.90
12957;DHT22;6543;48.836;10.092;2023-08-31T10:20:13;16.40;99.90
12957;DHT22;6543;48.836;10.092;2023-08-31T10:22:41;16.20;99.90
12957;DHT22;6543;48.836;10.092;2023-08-31T10:25:09;16.40;99.90
12957;DHT22;6543;48.836;10.092;2023-08-31T10:27:38;16.70;99.90
12957;DHT22;6543;48.836;10.092;2023-08-31T10:30:37;16.60;99.90
12957;DHT22;6543;48.836;10.092;2023-08-31T10:33:23;17.00;99.90
12957;DHT22;6543;48.836;10.092;2023-08-31T10:35:51;16.90;99.90
12957;DHT22;6543;48.836;10.092;2023-08-31T10:38:24;16.90;99.90
12957;DHT22;6543;48.836;10.092;2023-08-31T10:41:17;16.60;99.90
12957;DHT22;6543;48.836;10.092;2023-08-31T10:43:46;16.40;99.90
12957;DHT22;6543;48.836;10.092;2023-08-31T10:46:29;16.70;99.90
12957;DHT22;6543;48.836;10.092;2023-08-31T10:48:58;17.30;99.90
12957;DHT22;6543;48.836;10.092;2023-08-31T10:51:26;17.30;99.90
12957;DHT22;6543;48.836;10.092;2023-08-31T10:54:07;17.00;99.90
12957;DHT22;6543;48.836;10.092;2023-08-31T10:56:52;17.20;99.90
12957;DHT22;6543;48.836;10.092;2023-08-31T10:59:20;17.20;99.90
12957;DHT22;6543;48.836;10.092;2023-08-31T11:01:55;17.30;99.90
12957;DHT22;6543;48.836;10.092;2023-08-31T11:04:23;17.00;99.90
12957;DHT22;6543;48.836;10.092;2023-08-31T11:07:11;16.80;99.90
12957;DHT22;6543;48.836;10.092;2023-08-31T11:09:38;16.70;99.90
12957;DHT22;6543;48.836;10.092;2023-08-31T11:12:05;16.60;99.90
12957;DHT22;6543;48.836;10.092;2023-08-31T11:14:32;16.90;99.90
12957;DHT22;6543;48.836;10.092;2023-08-31T11:17:01;17.00;99.90
12957;DHT22;6543;48.836;10.092;2023-08-31T11:19:31;17.10;99.90
12957;DHT22;6543;48.836;10.092;2023-08-31T11:21:58;17.30;99.90
12957;DHT22;6543;48.836;10.092;2023-08-31T11:24:26;17.60;99.90
12957;DHT22;6543;48.836;10.092;2023-08-31T11:26:53;17.50;99.90
12957;DHT22;6543;48.836;10.092;2023-08-31T11:29:21;17.30;99.90
12957;DHT22;6543;48.836;10.092;2023-08-31T11:31:47;17.30;99.90
12957;DHT22;6543;48.836;10.092;2023-08-31T11:34:17;17.40;99.90
12957;DHT22;6543;48.836;10.092;2023-08-31T11:36:45;17.60;99.90
12957;DHT22;6543;48.836;10.092;2023-08-31T11:39:13;17.50;99.90
12957;DHT22;6543;48.836;10.092;2023-08-31T11:41:40;17.90;99.90
12957;DHT22;6543;48.836;10.092;2023-08-31T11:44:09;18.00;99.90
12957;DHT22;6543;48.836;10.092;2023-08-31T11:46:36;18.20;99.90
12957;DHT22;6543;48.836;10.092;2023-08-31T11:49:04;18.10;99.90
12957;DHT22;6543;48.836;10.092;2023-08-31T11:51:33;18.40;99.90
12957;DHT22;6543;48.836;10.092;2023-08-31T11:54:01;18.00;99.90
12957;DHT22;6543;48.836;10.092;2023-08-31T11:56:38;18.30;99.90
12957;DHT22;6543;48.836;10.092;2023-08-31T11:59:08;18.70;99.90
12957;DHT22;6543;48.836;10.092;2023-08-31T12:01:38;18.70;99.90
12957;DHT22;6543;48.836;10.092;2023-08-31T12:04:10;18.90;99.90
12957;DHT22;6543;48.836;10.092;2023-08-31T12:06:39;19.20;99.90
12957;DHT22;6543;48.836;10.092;2023-08-31T12:09:07;19.20;99.90
12957;DHT22;6543;48.836;10.092;2023-08-31T12:11:34;19.80;99.90
12957;DHT22;6543;48.836;10.092;2023-08-31T12:14:02;19.50;99.90
12957;DHT22;6543;48.836;10.092;2023-08-31T12:16:33;19.40;99.90
12957;DHT22;6543;48.836;10.092;2023-08-31T12:19:02;19.00;99.90
12957;DHT22;6543;48.836;10.092;2023-08-31T12:21:29;18.30;99.90
12957;DHT22;6543;48.836;10.092;2023-08-31T12:23:58;18.50;99.90
12957;DHT22;6543;48.836;10.092;2023-08-31T12:26:25;18.80;99.90
12957;DHT22;6543;48.836;10.092;2023-08-31T12:28:52;19.10;99.90
12957;DHT22;6543;48.836;10.092;2023-08-31T12:31:18;19.10;99.90
12957;DHT22;6543;48.836;10.092;2023-08-31T12:33:45;18.90;99.90
12957;DHT22;6543;48.836;10.092;2023-08-31T12:36:12;19.00;99.90
12957;DHT22;6543;48.836;10.092;2023-08-31T12:38:39;19.70;99.90
12957;DHT22;6543;48.836;10.092;2023-08-31T12:41:07;19.50;99.90
12957;DHT22;6543;48.836;10.092;2023-08-31T12:43:34;19.90;99.90
12957;DHT22;6543;48.836;10.092;2023-08-31T12:46:01;19.10;99.90
12957;DHT22;6543;48.836;10.092;2023-08-31T12:48:31;19.60;99.90
12957;DHT22;6543;48.836;10.092;2023-08-31T12:50:58;20.20;99.90
12957;DHT22;6543;48.836;10.092;2023-08-31T12:53:25;19.70;99.90
12957;DHT22;6543;48.836;10.092;2023-08-31T12:55:52;19.40;99.90
12957;DHT22;6543;48.836;10.092;2023-08-31T12:58:20;19.40;99.90
12957;DHT22;6543;48.836;10.092;2023-08-31T13:00:48;19.00;99.90
12957;DHT22;6543;48.836;10.092;2023-08-31T13:03:16;18.80;99.90
12957;DHT22;6543;48.836;10.092;2023-08-31T13:05:43;19.10;99.90
12957;DHT22;6543;48.836;10.092;2023-08-31T13:08:09;19.50;99.90
12957;DHT22;6543;48.836;10.092;2023-08-31T13:10:36;19.70;99.90
12957;DHT22;6543;48.836;10.092;2023-08-31T13:13:03;19.50;99.90
12957;DHT22;6543;48.836;10.092;2023-08-31T13:15:32;19.10;99.90
12957;DHT22;6543;48.836;10.092;2023-08-31T13:17:59;19.30;99.90
12957;DHT22;6543;48.836;10.092;2023-08-31T13:20:26;19.30;99.90
12957;DHT22;6543;48.836;10.092;2023-08-31T13:22:53;19.90;99.90
12957;DHT22;6543;48.836;10.092;2023-08-31T13:25:20;19.80;99.90
12957;DHT22;6543;48.836;10.092;2023-08-31T13:27:47;20.30;99.90
12957;DHT22;6543;48.836;10.092;2023-08-31T13:30:14;20.20;99.90
12957;DHT22;6543;48.836;10.092;2023-08-31T13:32:42;19.90;99.90
12957;DHT22;6543;48.836;10.092;2023-08-31T13:35:10;19.40;99.90
12957;DHT22;6543;48.836;10.092;2023-08-31T13:37:36;19.30;99.90
12957;DHT22;6543;48.836;10.092;2023-08-31T13:40:04;19.40;99.90
12957;DHT22;6543;48.836;10.092;2023-08-31T13:42:34;19.70;99.90
12957;DHT22;6543;48.836;10.092;2023-08-31T13:45:05;19.60;99.90
12957;DHT22;6543;48.836;10.092;2023-08-31T13:47:32;19.50;99.90
12957;DHT22;6543;48.836;10.092;2023-08-31T13:50:00;19.90;99.90
12957;DHT22;6543;48.836;10.092;2023-08-31T13:52:29;19.80;99.90
12957;DHT22;6543;48.836;10.092;2023-08-31T13:54:56;19.90;99.90
12957;DHT22;6543;48.836;10.092;2023-08-31T13:57:22;19.30;99.90
12957;DHT22;6543;48.836;10.092;2023-08-31T13:59:49;19.30;99.90
12957;DHT22;6543;48.836;10.092;2023-08-31T14:02:16;19.10;99.90
12957;DHT22;6543;48.836;10.092;2023-08-31T14:04:43;19.20;99.90
12957;DHT22;6543;48.836;10.092;2023-08-31T14:07:11;19.40;99.90
12957;DHT22;6543;48.836;10.092;2023-08-31T14:09:39;19.80;99.90
12957;DHT22;6543;48.836;10.092;2023-08-31T14:12:06;20.40;99.90
12957;DHT22;6543;48.836;10.092;2023-08-31T14:14:33;20.30;99.90
12957;DHT22;6543;48.836;10.092;2023-08-31T14:17:01;20.10;99.90
12957;DHT22;6543;48.836;10.092;2023-08-31T14:19:29;20.00;99.90
12957;DHT22;6543;48.836;10.092;2023-08-31T14:21:55;19.70;99.90
12957;DHT22;6543;48.836;10.092;2023-08-31T14:24:24;19.90;99.90
12957;DHT22;6543;48.836;10.092;2023-08-31T14:26:50;19.70;99.90
12957;DHT22;6543;48.836;10.092;2023-08-31T14:29:18;19.80;99.90
12957;DHT22;6543;48.836;10.092;2023-08-31T14:31:44;19.90;99.90
12957;DHT22;6543;48.836;10.092;2023-08-31T14:34:11;20.20;99.90
12957;DHT22;6543;48.836;10.092;2023-08-31T14:36:38;19.70;99.90
12957;DHT22;6543;48.836;10.092;2023-08-31T14:39:05;19.60;99.90
12957;DHT22;6543;48.836;10.092;2023-08-31T14:41:33;19.90;99.90
12957;DHT22;6543;48.836;10.092;2023-08-31T14:44:00;20.00;99.90
12957;DHT22;6543;48.836;10.092;2023-08-31T14:46:27;19.50;99.90
12957;DHT22;6543;48.836;10.092;2023-08-31T14:48:54;19.30;99.90
12957;DHT22;6543;48.836;10.092;2023-08-31T14:51:20;19.20;99.90
12957;DHT22;6543;48.836;10.092;2023-08-31T14:53:47;19.40;99.90
12957;DHT22;6543;48.836;10.092;2023-08-31T14:56:14;19.30;99.90
12957;DHT22;6543;48.836;10.092;2023-08-31T14:58:42;19.40;99.90
12957;DHT22;6543;48.836;10.092;2023-08-31T15:01:09;19.30;99.90
12957;DHT22;6543;48.836;10.092;2023-08-31T15:03:36;19.50;99.90
12957;DHT22;6543;48.836;10.092;2023-08-31T15:06:03;19.40;99.90
12957;DHT22;6543;48.836;10.092;2023-08-31T15:08:37;19.40;99.90
12957;DHT22;6543;48.836;10.092;2023-08-31T15:11:04;19.30;99.90
12957;DHT22;6543;48.836;10.092;2023-08-31T15:13:31;19.20;99.90
12957;DHT22;6543;48.836;10.092;2023-08-31T15:15:59;19.40;99.90
12957;DHT22;6543;48.836;10.092;2023-08-31T15:18:26;19.20;99.90
12957;DHT22;6543;48.836;10.092;2023-08-31T15:20:54;19.20;99.90
12957;DHT22;6543;48.836;10.092;2023-08-31T15:23:21;19.20;99.90
12957;DHT22;6543;48.836;10.092;2023-08-31T15:25:48;19.00;99.90
12957;DHT22;6543;48.836;10.092;2023-08-31T15:28:15;19.00;99.90
12957;DHT22;6543;48.836;10.092;2023-08-31T15:30:42;19.10;99.90
12957;DHT22;6543;48.836;10.092;2023-08-31T15:33:10;19.00;99.90
12957;DHT22;6543;48.836;10.092;2023-08-31T15:35:37;18.90;99.90